sensor_id;sensor_type;location;lat;lon;timestamp;temperature;humidity
35497;DHT22;21609;49.298;6.844;2023-05-16T00:01:17;21.00;55.80
35497;DHT22;21609;49.298;6.844;2023-05-16T00:03:43;21.00;55.80
35497;DHT22;21609;49.298;6.844;2023-05-16T00:06:10;20.90;55.70
35497;DHT22;21609;49.298;6.844;2023-05-16T00:08:35;20.90;55.80
35497;DHT22;21609;49.298;6.844;2023-05-16T00:11:01;20.90;55.70
35497;DHT22;21609;49.298;6.844;2023-05-16T00:13:28;20.90;55.80
35497;DHT22;21609;49.298;6.844;2023-05-16T00:15:54;20.90;55.80
35497;DHT22;21609;49.298;6.844;2023-05-16T00:18:20;20.90;55.80
35497;DHT22;21609;49.298;6.844;2023-05-16T00:20:47;20.90;55.80
35497;DHT22;21609;49.298;6.844;2023-05-16T00:23:13;20.90;55.80
35497;DHT22;21609;49.298;6.844;2023-05-16T00:25:39;20.90;55.80
35497;DHT22;21609;49.298;6.844;2023-05-16T00:28:05;20.90;55.80
35497;DHT22;21609;49.298;6.844;2023-05-16T00:30:31;20.90;55.80
35497;DHT22;21609;49.298;6.844;2023-05-16T00:32:57;20.90;55.80
35497;DHT22;21609;49.298;6.844;2023-05-16T00:35:22;20.90;55.80
35497;DHT22;21609;49.298;6.844;2023-05-16T00:37:49;20.90;55.80
35497;DHT22;21609;49.298;6.844;2023-05-16T00:40:15;20.90;55.80
35497;DHT22;21609;49.298;6.844;2023-05-16T00:42:41;20.90;55.80
35497;DHT22;21609;49.298;6.844;2023-05-16T00:45:07;20.80;55.80
35497;DHT22;21609;49.298;6.844;2023-05-16T00:47:34;20.80;55.80
35497;DHT22;21609;49.298;6.844;2023-05-16T00:50:00;20.80;55.80
35497;DHT22;21609;49.298;6.844;2023-05-16T00:52:26;20.80;55.80
35497;DHT22;21609;49.298;6.844;2023-05-16T00:54:52;20.90;55.90
35497;DHT22;21609;49.298;6.844;2023-05-16T00:57:18;20.90;55.90
35497;DHT22;21609;49.298;6.844;2023-05-16T00:59:45;20.80;55.90
35497;DHT22;21609;49.298;6.844;2023-05-16T01:02:12;20.80;55.90
35497;DHT22;21609;49.298;6.844;2023-05-16T01:04:38;20.80;55.90
35497;DHT22;21609;49.298;6.844;2023-05-16T01:07:03;20.80;56.50
35497;DHT22;21609;49.298;6.844;2023-05-16T01:09:29;20.80;55.90
35497;DHT22;21609;49.298;6.844;2023-05-16T01:12:16;20.80;55.90
35497;DHT22;21609;49.298;6.844;2023-05-16T01:15:01;20.80;55.90
35497;DHT22;21609;49.298;6.844;2023-05-16T01:17:56;20.80;55.90
35497;DHT22;21609;49.298;6.844;2023-05-16T01:20:41;20.80;55.90
35497;DHT22;21609;49.298;6.844;2023-05-16T01:28:45;20.80;55.90
35497;DHT22;21609;49.298;6.844;2023-05-16T01:31:11;20.70;55.90
35497;DHT22;21609;49.298;6.844;2023-05-16T01:33:36;20.70;55.90
35497;DHT22;21609;49.298;6.844;2023-05-16T01:41:28;20.70;55.90
35497;DHT22;21609;49.298;6.844;2023-05-16T01:44:04;20.70;55.90
35497;DHT22;21609;49.298;6.844;2023-05-16T01:46:37;20.70;55.90
35497;DHT22;21609;49.298;6.844;2023-05-16T01:49:29;20.70;55.90
35497;DHT22;21609;49.298;6.844;2023-05-16T01:52:00;20.70;56.00
35497;DHT22;21609;49.298;6.844;2023-05-16T01:54:30;20.60;55.90
35497;DHT22;21609;49.298;6.844;2023-05-16T01:56:56;20.70;56.00
35497;DHT22;21609;49.298;6.844;2023-05-16T01:59:23;20.60;55.90
35497;DHT22;21609;49.298;6.844;2023-05-16T02:01:52;20.70;56.00
35497;DHT22;21609;49.298;6.844;2023-05-16T02:04:18;20.60;56.00
35497;DHT22;21609;49.298;6.844;2023-05-16T02:06:43;20.60;55.90
35497;DHT22;21609;49.298;6.844;2023-05-16T02:09:09;20.60;55.90
35497;DHT22;21609;49.298;6.844;2023-05-16T02:11:35;20.60;55.90
35497;DHT22;21609;49.298;6.844;2023-05-16T02:14:00;20.60;56.00
35497;DHT22;21609;49.298;6.844;2023-05-16T02:16:26;20.60;55.90
35497;DHT22;21609;49.298;6.844;2023-05-16T02:18:52;20.60;55.90
35497;DHT22;21609;49.298;6.844;2023-05-16T02:21:17;20.60;56.00
35497;DHT22;21609;49.298;6.844;2023-05-16T02:23:43;20.60;55.90
35497;DHT22;21609;49.298;6.844;2023-05-16T02:26:08;20.60;55.90
35497;DHT22;21609;49.298;6.844;2023-05-16T02:28:34;20.50;55.90
35497;DHT22;21609;49.298;6.844;2023-05-16T02:31:00;20.50;55.90
35497;DHT22;21609;49.298;6.844;2023-05-16T02:33:27;20.50;55.90
35497;DHT22;21609;49.298;6.844;2023-05-16T02:35:53;20.50;56.00
35497;DHT22;21609;49.298;6.844;2023-05-16T02:38:19;20.50;55.90
35497;DHT22;21609;49.298;6.844;2023-05-16T02:40:48;20.50;55.90
35497;DHT22;21609;49.298;6.844;2023-05-16T02:43:14;20.50;56.50
35497;DHT22;21609;49.298;6.844;2023-05-16T02:45:40;20.50;56.00
35497;DHT22;21609;49.298;6.844;2023-05-16T02:48:05;20.50;56.00
35497;DHT22;21609;49.298;6.844;2023-05-16T02:50:32;20.50;56.00
35497;DHT22;21609;49.298;6.844;2023-05-16T02:52:57;20.50;55.90
35497;DHT22;21609;49.298;6.844;2023-05-16T02:55:24;20.50;56.00
35497;DHT22;21609;49.298;6.844;2023-05-16T02:57:50;20.50;56.00
35497;DHT22;21609;49.298;6.844;2023-05-16T03:00:16;20.50;56.00
35497;DHT22;21609;49.298;6.844;2023-05-16T03:02:43;20.50;56.00
35497;DHT22;21609;49.298;6.844;2023-05-16T03:05:09;20.50;56.00
35497;DHT22;21609;49.298;6.844;2023-05-16T03:07:35;20.50;56.00
35497;DHT22;21609;49.298;6.844;2023-05-16T03:10:02;20.50;56.00
35497;DHT22;21609;49.298;6.844;2023-05-16T03:12:27;20.50;56.00
35497;DHT22;21609;49.298;6.844;2023-05-16T03:14:53;20.50;56.00
35497;DHT22;21609;49.298;6.844;2023-05-16T03:17:18;20.50;56.00
35497;DHT22;21609;49.298;6.844;2023-05-16T03:19:44;20.50;56.00
35497;DHT22;21609;49.298;6.844;2023-05-16T03:22:10;20.40;56.00
35497;DHT22;21609;49.298;6.844;2023-05-16T03:24:35;20.40;55.90
35497;DHT22;21609;49.298;6.844;2023-05-16T03:27:01;20.40;55.90
35497;DHT22;21609;49.298;6.844;2023-05-16T03:29:29;20.40;56.00
35497;DHT22;21609;49.298;6.844;2023-05-16T03:31:55;20.40;56.00
35497;DHT22;21609;49.298;6.844;2023-05-16T03:34:21;20.40;55.90
35497;DHT22;21609;49.298;6.844;2023-05-16T03:36:48;20.40;56.00
35497;DHT22;21609;49.298;6.844;2023-05-16T03:39:13;20.40;56.00
35497;DHT22;21609;49.298;6.844;2023-05-16T03:41:39;20.40;56.00
35497;DHT22;21609;49.298;6.844;2023-05-16T03:44:05;20.40;56.00
35497;DHT22;21609;49.298;6.844;2023-05-16T03:46:31;20.40;56.00
35497;DHT22;21609;49.298;6.844;2023-05-16T03:48:56;20.40;56.00
35497;DHT22;21609;49.298;6.844;2023-05-16T03:51:22;20.40;56.00
35497;DHT22;21609;49.298;6.844;2023-05-16T03:53:47;20.40;56.00
35497;DHT22;21609;49.298;6.844;2023-05-16T03:56:13;20.30;56.00
35497;DHT22;21609;49.298;6.844;2023-05-16T03:58:38;20.40;56.00
35497;DHT22;21609;49.298;6.844;2023-05-16T04:01:04;20.30;56.00
35497;DHT22;21609;49.298;6.844;2023-05-16T04:03:29;20.40;56.00
35497;DHT22;21609;49.298;6.844;2023-05-16T04:05:56;20.30;56.00
35497;DHT22;21609;49.298;6.844;2023-05-16T04:08:22;20.30;56.00
35497;DHT22;21609;49.298;6.844;2023-05-16T04:10:47;20.30;56.00
35497;DHT22;21609;49.298;6.844;2023-05-16T04:13:13;20.30;56.00
35497;DHT22;21609;49.298;6.844;2023-05-16T04:15:39;20.30;56.00
35497;DHT22;21609;49.298;6.844;2023-05-16T04:18:05;20.30;56.00
35497;DHT22;21609;49.298;6.844;2023-05-16T04:20:30;20.30;56.00
35497;DHT22;21609;49.298;6.844;2023-05-16T04:22:56;20.30;56.00
35497;DHT22;21609;49.298;6.844;2023-05-16T04:25:21;20.30;56.00
35497;DHT22;21609;49.298;6.844;2023-05-16T04:27:47;20.30;55.90
35497;DHT22;21609;49.298;6.844;2023-05-16T04:30:12;20.30;56.00
35497;DHT22;21609;49.298;6.844;2023-05-16T04:32:39;20.30;56.00
35497;DHT22;21609;49.298;6.844;2023-05-16T04:35:05;20.30;56.00
35497;DHT22;21609;49.298;6.844;2023-05-16T04:37:33;20.30;56.00
35497;DHT22;21609;49.298;6.844;2023-05-16T04:40:00;20.30;56.00
35497;DHT22;21609;49.298;6.844;2023-05-16T04:42:25;20.30;56.00
35497;DHT22;21609;49.298;6.844;2023-05-16T04:44:51;20.20;56.00
35497;DHT22;21609;49.298;6.844;2023-05-16T04:47:16;20.30;56.00
35497;DHT22;21609;49.298;6.844;2023-05-16T04:49:42;20.20;55.90
35497;DHT22;21609;49.298;6.844;2023-05-16T04:52:08;20.20;56.00
35497;DHT22;21609;49.298;6.844;2023-05-16T04:54:34;20.30;56.00
35497;DHT22;21609;49.298;6.844;2023-05-16T04:56:59;20.20;56.00
35497;DHT22;21609;49.298;6.844;2023-05-16T04:59:25;20.20;56.00
35497;DHT22;21609;49.298;6.844;2023-05-16T05:01:51;20.20;56.00
35497;DHT22;21609;49.298;6.844;2023-05-16T05:04:17;20.20;56.00
35497;DHT22;21609;49.298;6.844;2023-05-16T05:06:42;20.20;56.00
35497;DHT22;21609;49.298;6.844;2023-05-16T05:09:08;20.20;56.00
35497;DHT22;21609;49.298;6.844;2023-05-16T05:11:34;20.20;56.20
35497;DHT22;21609;49.298;6.844;2023-05-16T05:14:00;20.20;56.10
35497;DHT22;21609;49.298;6.844;2023-05-16T05:16:25;20.20;56.10
35497;DHT22;21609;49.298;6.844;2023-05-16T05:18:51;20.20;56.00
35497;DHT22;21609;49.298;6.844;2023-05-16T05:21:17;20.20;56.00
35497;DHT22;21609;49.298;6.844;2023-05-16T05:23:44;20.20;56.60
35497;DHT22;21609;49.298;6.844;2023-05-16T05:26:10;20.20;56.00
35497;DHT22;21609;49.298;6.844;2023-05-16T05:28:36;20.20;56.00
35497;DHT22;21609;49.298;6.844;2023-05-16T05:31:03;20.20;56.10
35497;DHT22;21609;49.298;6.844;2023-05-16T05:33:29;20.20;56.10
35497;DHT22;21609;49.298;6.844;2023-05-16T05:35:55;20.10;56.10
35497;DHT22;21609;49.298;6.844;2023-05-16T05:38:21;20.20;56.00
35497;DHT22;21609;49.298;6.844;2023-05-16T05:40:46;20.10;56.00
35497;DHT22;21609;49.298;6.844;2023-05-16T05:43:13;20.10;56.00
35497;DHT22;21609;49.298;6.844;2023-05-16T05:45:39;20.10;56.00
35497;DHT22;21609;49.298;6.844;2023-05-16T05:48:05;20.10;56.00
35497;DHT22;21609;49.298;6.844;2023-05-16T05:50:31;20.10;56.00
35497;DHT22;21609;49.298;6.844;2023-05-16T05:52:56;20.10;56.00
35497;DHT22;21609;49.298;6.844;2023-05-16T05:55:22;20.10;56.00
35497;DHT22;21609;49.298;6.844;2023-05-16T05:57:47;20.10;56.00
35497;DHT22;21609;49.298;6.844;2023-05-16T06:00:13;20.10;56.10
35497;DHT22;21609;49.298;6.844;2023-05-16T06:02:39;20.10;56.00
35497;DHT22;21609;49.298;6.844;2023-05-16T06:05:05;20.10;56.00
35497;DHT22;21609;49.298;6.844;2023-05-16T06:07:30;20.10;56.00
35497;DHT22;21609;49.298;6.844;2023-05-16T06:09:56;20.10;56.00
35497;DHT22;21609;49.298;6.844;2023-05-16T06:12:21;20.10;56.00
35497;DHT22;21609;49.298;6.844;2023-05-16T06:14:47;20.10;56.00
35497;DHT22;21609;49.298;6.844;2023-05-16T06:17:12;20.00;56.00
35497;DHT22;21609;49.298;6.844;2023-05-16T06:19:38;20.00;56.00
35497;DHT22;21609;49.298;6.844;2023-05-16T06:22:03;20.10;56.10
35497;DHT22;21609;49.298;6.844;2023-05-16T06:24:29;20.10;56.00
35497;DHT22;21609;49.298;6.844;2023-05-16T06:26:55;20.10;56.00
35497;DHT22;21609;49.298;6.844;2023-05-16T06:29:20;20.00;55.90
35497;DHT22;21609;49.298;6.844;2023-05-16T06:31:46;20.00;56.00
35497;DHT22;21609;49.298;6.844;2023-05-16T06:34:11;20.00;56.00
35497;DHT22;21609;49.298;6.844;2023-05-16T06:36:37;20.10;56.00
35497;DHT22;21609;49.298;6.844;2023-05-16T06:39:02;20.00;56.00
35497;DHT22;21609;49.298;6.844;2023-05-16T06:41:29;20.00;56.00
35497;DHT22;21609;49.298;6.844;2023-05-16T06:43:55;20.00;56.00
35497;DHT22;21609;49.298;6.844;2023-05-16T06:46:21;20.00;56.00
35497;DHT22;21609;49.298;6.844;2023-05-16T06:48:47;20.00;56.00
35497;DHT22;21609;49.298;6.844;2023-05-16T06:51:12;20.00;56.00
35497;DHT22;21609;49.298;6.844;2023-05-16T06:53:38;20.00;56.00
35497;DHT22;21609;49.298;6.844;2023-05-16T06:56:03;20.00;55.90
35497;DHT22;21609;49.298;6.844;2023-05-16T06:58:29;20.00;55.90
35497;DHT22;21609;49.298;6.844;2023-05-16T07:00:54;19.90;55.90
35497;DHT22;21609;49.298;6.844;2023-05-16T07:03:20;20.00;56.00
35497;DHT22;21609;49.298;6.844;2023-05-16T07:05:46;19.90;56.00
35497;DHT22;21609;49.298;6.844;2023-05-16T07:08:11;19.90;56.00
35497;DHT22;21609;49.298;6.844;2023-05-16T07:10:38;19.90;56.00
35497;DHT22;21609;49.298;6.844;2023-05-16T07:13:03;19.90;55.90
35497;DHT22;21609;49.298;6.844;2023-05-16T07:15:29;20.00;56.00
35497;DHT22;21609;49.298;6.844;2023-05-16T07:17:55;20.00;56.10
35497;DHT22;21609;49.298;6.844;2023-05-16T07:20:21;20.00;56.00
35497;DHT22;21609;49.298;6.844;2023-05-16T07:22:47;20.00;56.00
35497;DHT22;21609;49.298;6.844;2023-05-16T07:25:13;20.00;56.00
35497;DHT22;21609;49.298;6.844;2023-05-16T07:27:40;20.00;56.00
35497;DHT22;21609;49.298;6.844;2023-05-16T07:30:09;20.00;56.10
35497;DHT22;21609;49.298;6.844;2023-05-16T07:32:35;20.00;55.90
35497;DHT22;21609;49.298;6.844;2023-05-16T07:35:02;20.00;56.00
35497;DHT22;21609;49.298;6.844;2023-05-16T07:37:28;20.00;56.00
35497;DHT22;21609;49.298;6.844;2023-05-16T07:39:53;19.90;55.90
35497;DHT22;21609;49.298;6.844;2023-05-16T07:42:19;20.00;55.90
35497;DHT22;21609;49.298;6.844;2023-05-16T07:44:45;19.90;56.00
35497;DHT22;21609;49.298;6.844;2023-05-16T07:47:10;19.90;56.00
35497;DHT22;21609;49.298;6.844;2023-05-16T07:49:36;19.90;56.00
35497;DHT22;21609;49.298;6.844;2023-05-16T07:52:02;19.90;55.90
35497;DHT22;21609;49.298;6.844;2023-05-16T07:54:27;19.90;56.00
35497;DHT22;21609;49.298;6.844;2023-05-16T07:56:53;19.90;55.90
35497;DHT22;21609;49.298;6.844;2023-05-16T07:59:18;19.90;55.90
35497;DHT22;21609;49.298;6.844;2023-05-16T08:01:44;19.90;56.00
35497;DHT22;21609;49.298;6.844;2023-05-16T08:04:10;19.90;55.90
35497;DHT22;21609;49.298;6.844;2023-05-16T08:06:35;19.90;55.90
35497;DHT22;21609;49.298;6.844;2023-05-16T08:09:01;19.90;55.90
35497;DHT22;21609;49.298;6.844;2023-05-16T08:11:27;19.90;56.00
35497;DHT22;21609;49.298;6.844;2023-05-16T08:13:53;19.90;55.90
35497;DHT22;21609;49.298;6.844;2023-05-16T08:16:18;19.90;55.90
35497;DHT22;21609;49.298;6.844;2023-05-16T08:18:44;19.90;55.90
35497;DHT22;21609;49.298;6.844;2023-05-16T08:21:09;19.90;55.90
35497;DHT22;21609;49.298;6.844;2023-05-16T08:23:35;19.90;55.90
35497;DHT22;21609;49.298;6.844;2023-05-16T08:26:01;19.90;56.00
35497;DHT22;21609;49.298;6.844;2023-05-16T08:28:27;19.90;56.00
35497;DHT22;21609;49.298;6.844;2023-05-16T08:30:53;19.90;56.00
35497;DHT22;21609;49.298;6.844;2023-05-16T08:33:18;19.90;56.50
35497;DHT22;21609;49.298;6.844;2023-05-16T08:35:44;19.90;55.90
35497;DHT22;21609;49.298;6.844;2023-05-16T08:38:10;19.80;55.80
35497;DHT22;21609;49.298;6.844;2023-05-16T08:40:39;19.90;55.90
35497;DHT22;21609;49.298;6.844;2023-05-16T08:43:05;19.80;55.80
35497;DHT22;21609;49.298;6.844;2023-05-16T08:45:31;19.90;55.90
35497;DHT22;21609;49.298;6.844;2023-05-16T08:48:00;19.80;55.90
35497;DHT22;21609;49.298;6.844;2023-05-16T08:50:29;19.90;55.90
35497;DHT22;21609;49.298;6.844;2023-05-16T08:52:56;19.80;55.80
35497;DHT22;21609;49.298;6.844;2023-05-16T08:55:22;19.80;55.80
35497;DHT22;21609;49.298;6.844;2023-05-16T08:57:49;19.90;55.90
35497;DHT22;21609;49.298;6.844;2023-05-16T09:00:16;19.80;55.80
35497;DHT22;21609;49.298;6.844;2023-05-16T09:02:43;19.80;55.80
35497;DHT22;21609;49.298;6.844;2023-05-16T09:05:12;19.80;55.90
35497;DHT22;21609;49.298;6.844;2023-05-16T09:07:38;19.80;55.90
35497;DHT22;21609;49.298;6.844;2023-05-16T09:10:05;19.80;55.80
35497;DHT22;21609;49.298;6.844;2023-05-16T09:12:34;19.80;55.90
35497;DHT22;21609;49.298;6.844;2023-05-16T09:15:04;19.80;55.80
35497;DHT22;21609;49.298;6.844;2023-05-16T09:17:48;19.90;55.90
35497;DHT22;21609;49.298;6.844;2023-05-16T09:20:18;19.80;55.80
35497;DHT22;21609;49.298;6.844;2023-05-16T09:25:20;19.80;55.80
35497;DHT22;21609;49.298;6.844;2023-05-16T09:27:57;19.80;55.80
35497;DHT22;21609;49.298;6.844;2023-05-16T09:30:28;19.80;55.80
35497;DHT22;21609;49.298;6.844;2023-05-16T09:32:54;19.80;55.80
35497;DHT22;21609;49.298;6.844;2023-05-16T09:35:21;19.80;55.80
35497;DHT22;21609;49.298;6.844;2023-05-16T09:37:49;19.80;55.80
35497;DHT22;21609;49.298;6.844;2023-05-16T09:40:19;19.80;55.80
35497;DHT22;21609;49.298;6.844;2023-05-16T09:42:45;19.80;55.80
35497;DHT22;21609;49.298;6.844;2023-05-16T09:45:12;19.80;55.90
35497;DHT22;21609;49.298;6.844;2023-05-16T09:47:38;19.80;55.90
35497;DHT22;21609;49.298;6.844;2023-05-16T09:50:13;19.80;55.90
35497;DHT22;21609;49.298;6.844;2023-05-16T09:52:40;19.80;55.90
35497;DHT22;21609;49.298;6.844;2023-05-16T09:55:07;19.80;56.00
35497;DHT22;21609;49.298;6.844;2023-05-16T09:57:36;19.80;56.00
35497;DHT22;21609;49.298;6.844;2023-05-16T10:00:04;19.80;56.00
35497;DHT22;21609;49.298;6.844;2023-05-16T10:02:32;19.80;56.00
35497;DHT22;21609;49.298;6.844;2023-05-16T10:04:58;19.80;56.00
35497;DHT22;21609;49.298;6.844;2023-05-16T10:07:24;19.80;56.00
35497;DHT22;21609;49.298;6.844;2023-05-16T10:09:51;19.80;56.00
35497;DHT22;21609;49.298;6.844;2023-05-16T10:12:18;19.80;56.00
35497;DHT22;21609;49.298;6.844;2023-05-16T10:14:45;19.80;56.00
35497;DHT22;21609;49.298;6.844;2023-05-16T10:17:14;19.90;56.00
35497;DHT22;21609;49.298;6.844;2023-05-16T10:19:41;19.80;55.90
35497;DHT22;21609;49.298;6.844;2023-05-16T10:22:07;19.90;56.00
35497;DHT22;21609;49.298;6.844;2023-05-16T10:27:26;19.90;56.00
35497;DHT22;21609;49.298;6.844;2023-05-16T10:29:52;19.90;55.90
35497;DHT22;21609;49.298;6.844;2023-05-16T10:32:18;19.90;55.90
35497;DHT22;21609;49.298;6.844;2023-05-16T10:34:45;19.90;55.90
35497;DHT22;21609;49.298;6.844;2023-05-16T10:37:10;19.90;55.90
35497;DHT22;21609;49.298;6.844;2023-05-16T10:39:37;19.90;56.00
35497;DHT22;21609;49.298;6.844;2023-05-16T10:42:05;19.90;55.90
35497;DHT22;21609;49.298;6.844;2023-05-16T10:44:32;19.90;55.90
35497;DHT22;21609;49.298;6.844;2023-05-16T10:46:59;20.00;55.90
35497;DHT22;21609;49.298;6.844;2023-05-16T10:49:26;20.00;55.90
35497;DHT22;21609;49.298;6.844;2023-05-16T10:52:10;20.00;55.90
35497;DHT22;21609;49.298;6.844;2023-05-16T10:54:39;20.00;55.80
35497;DHT22;21609;49.298;6.844;2023-05-16T10:57:11;20.00;55.80
35497;DHT22;21609;49.298;6.844;2023-05-16T10:59:43;20.10;55.80
35497;DHT22;21609;49.298;6.844;2023-05-16T11:04:51;20.10;55.70
35497;DHT22;21609;49.298;6.844;2023-05-16T11:07:18;20.10;55.70
35497;DHT22;21609;49.298;6.844;2023-05-16T11:09:44;20.20;55.70
35497;DHT22;21609;49.298;6.844;2023-05-16T11:12:11;20.20;55.70
35497;DHT22;21609;49.298;6.844;2023-05-16T11:14:39;20.20;55.60
35497;DHT22;21609;49.298;6.844;2023-05-16T11:17:22;20.30;55.60
35497;DHT22;21609;49.298;6.844;2023-05-16T11:19:50;20.30;55.50
35497;DHT22;21609;49.298;6.844;2023-05-16T11:27:23;20.40;55.50
35497;DHT22;21609;49.298;6.844;2023-05-16T11:29:49;20.40;55.50
35497;DHT22;21609;49.298;6.844;2023-05-16T11:32:18;20.40;55.50
35497;DHT22;21609;49.298;6.844;2023-05-16T11:34:46;20.50;55.50
35497;DHT22;21609;49.298;6.844;2023-05-16T11:37:12;20.50;55.40
35497;DHT22;21609;49.298;6.844;2023-05-16T11:39:38;20.50;55.40
35497;DHT22;21609;49.298;6.844;2023-05-16T11:42:03;20.50;55.30
35497;DHT22;21609;49.298;6.844;2023-05-16T11:44:29;20.50;55.30
35497;DHT22;21609;49.298;6.844;2023-05-16T11:46:55;20.50;55.30
35497;DHT22;21609;49.298;6.844;2023-05-16T11:49:20;20.50;55.30
35497;DHT22;21609;49.298;6.844;2023-05-16T11:51:46;20.60;55.30
35497;DHT22;21609;49.298;6.844;2023-05-16T11:54:12;20.60;55.30
35497;DHT22;21609;49.298;6.844;2023-05-16T11:56:39;20.60;55.20
35497;DHT22;21609;49.298;6.844;2023-05-16T11:59:07;20.60;55.10
35497;DHT22;21609;49.298;6.844;2023-05-16T12:01:35;20.70;55.10
35497;DHT22;21609;49.298;6.844;2023-05-16T12:04:06;20.70;55.10
35497;DHT22;21609;49.298;6.844;2023-05-16T12:06:32;20.70;55.10
35497;DHT22;21609;49.298;6.844;2023-05-16T12:08:58;20.70;55.00
35497;DHT22;21609;49.298;6.844;2023-05-16T12:11:24;20.70;55.10
35497;DHT22;21609;49.298;6.844;2023-05-16T12:13:50;20.70;55.10
35497;DHT22;21609;49.298;6.844;2023-05-16T12:16:16;20.70;55.10
35497;DHT22;21609;49.298;6.844;2023-05-16T12:18:41;20.80;55.10
35497;DHT22;21609;49.298;6.844;2023-05-16T12:21:07;20.80;55.10
35497;DHT22;21609;49.298;6.844;2023-05-16T12:23:33;20.80;55.00
35497;DHT22;21609;49.298;6.844;2023-05-16T12:25:58;20.80;55.00
35497;DHT22;21609;49.298;6.844;2023-05-16T12:28:31;20.90;55.10
35497;DHT22;21609;49.298;6.844;2023-05-16T12:31:02;20.90;55.00
35497;DHT22;21609;49.298;6.844;2023-05-16T12:33:27;20.90;55.00
35497;DHT22;21609;49.298;6.844;2023-05-16T12:35:53;20.90;54.90
35497;DHT22;21609;49.298;6.844;2023-05-16T12:38:19;21.00;55.00
35497;DHT22;21609;49.298;6.844;2023-05-16T12:40:46;21.00;55.00
35497;DHT22;21609;49.298;6.844;2023-05-16T12:43:19;21.00;55.00
35497;DHT22;21609;49.298;6.844;2023-05-16T12:45:55;21.00;54.90
35497;DHT22;21609;49.298;6.844;2023-05-16T12:48:30;21.10;55.00
35497;DHT22;21609;49.298;6.844;2023-05-16T12:50:56;21.10;55.00
35497;DHT22;21609;49.298;6.844;2023-05-16T12:53:22;21.10;55.60
35497;DHT22;21609;49.298;6.844;2023-05-16T12:55:47;21.20;55.10
35497;DHT22;21609;49.298;6.844;2023-05-16T12:58:13;21.20;55.00
35497;DHT22;21609;49.298;6.844;2023-05-16T13:00:39;21.30;55.00
35497;DHT22;21609;49.298;6.844;2023-05-16T13:03:05;21.30;54.90
35497;DHT22;21609;49.298;6.844;2023-05-16T13:05:31;21.30;54.70
35497;DHT22;21609;49.298;6.844;2023-05-16T13:07:57;21.40;54.70
35497;DHT22;21609;49.298;6.844;2023-05-16T13:10:22;21.40;54.80
35497;DHT22;21609;49.298;6.844;2023-05-16T13:12:50;21.40;54.80
35497;DHT22;21609;49.298;6.844;2023-05-16T13:15:15;21.50;54.90
35497;DHT22;21609;49.298;6.844;2023-05-16T13:17:42;21.50;54.90
35497;DHT22;21609;49.298;6.844;2023-05-16T13:20:11;21.60;54.90
35497;DHT22;21609;49.298;6.844;2023-05-16T13:22:39;21.60;54.80
35497;DHT22;21609;49.298;6.844;2023-05-16T13:25:05;21.70;54.60
35497;DHT22;21609;49.298;6.844;2023-05-16T13:27:31;21.70;54.50
35497;DHT22;21609;49.298;6.844;2023-05-16T13:29:58;21.60;54.50
35497;DHT22;21609;49.298;6.844;2023-05-16T13:32:23;21.70;54.50
35497;DHT22;21609;49.298;6.844;2023-05-16T13:34:50;21.80;54.60
35497;DHT22;21609;49.298;6.844;2023-05-16T13:37:16;21.80;54.60
35497;DHT22;21609;49.298;6.844;2023-05-16T13:39:41;21.80;54.60
35497;DHT22;21609;49.298;6.844;2023-05-16T13:42:07;21.90;54.50
35497;DHT22;21609;49.298;6.844;2023-05-16T13:44:32;21.90;54.60
35497;DHT22;21609;49.298;6.844;2023-05-16T13:46:58;21.90;54.30
35497;DHT22;21609;49.298;6.844;2023-05-16T13:49:24;22.00;54.20
35497;DHT22;21609;49.298;6.844;2023-05-16T13:51:49;22.00;54.30
35497;DHT22;21609;49.298;6.844;2023-05-16T13:54:16;22.00;54.20
35497;DHT22;21609;49.298;6.844;2023-05-16T13:56:42;22.00;54.20
35497;DHT22;21609;49.298;6.844;2023-05-16T13:59:08;22.10;54.30
35497;DHT22;21609;49.298;6.844;2023-05-16T14:01:33;22.10;54.10
35497;DHT22;21609;49.298;6.844;2023-05-16T14:03:59;22.10;53.90
35497;DHT22;21609;49.298;6.844;2023-05-16T14:06:24;22.10;54.00
35497;DHT22;21609;49.298;6.844;2023-05-16T14:08:50;22.10;54.00
35497;DHT22;21609;49.298;6.844;2023-05-16T14:11:16;22.10;54.10
35497;DHT22;21609;49.298;6.844;2023-05-16T14:13:44;22.20;54.10
35497;DHT22;21609;49.298;6.844;2023-05-16T14:16:09;22.30;54.10
35497;DHT22;21609;49.298;6.844;2023-05-16T14:18:35;22.30;53.90
35497;DHT22;21609;49.298;6.844;2023-05-16T14:21:00;22.30;53.70
35497;DHT22;21609;49.298;6.844;2023-05-16T14:23:26;22.30;53.70
35497;DHT22;21609;49.298;6.844;2023-05-16T14:25:52;22.30;53.80
35497;DHT22;21609;49.298;6.844;2023-05-16T14:28:18;22.30;53.70
35497;DHT22;21609;49.298;6.844;2023-05-16T14:30:43;22.40;53.70
35497;DHT22;21609;49.298;6.844;2023-05-16T14:33:09;22.40;53.80
35497;DHT22;21609;49.298;6.844;2023-05-16T14:35:34;22.50;53.80
35497;DHT22;21609;49.298;6.844;2023-05-16T14:38:02;22.50;53.70
35497;DHT22;21609;49.298;6.844;2023-05-16T14:40:28;22.60;53.70
35497;DHT22;21609;49.298;6.844;2023-05-16T14:42:54;22.70;53.60
35497;DHT22;21609;49.298;6.844;2023-05-16T14:45:19;22.70;53.50
35497;DHT22;21609;49.298;6.844;2023-05-16T14:47:45;22.80;53.40
35497;DHT22;21609;49.298;6.844;2023-05-16T14:50:11;22.70;53.20
35497;DHT22;21609;49.298;6.844;2023-05-16T14:52:38;22.70;53.30
35497;DHT22;21609;49.298;6.844;2023-05-16T14:55:04;22.70;53.40
35497;DHT22;21609;49.298;6.844;2023-05-16T14:57:30;22.70;53.40
35497;DHT22;21609;49.298;6.844;2023-05-16T14:59:56;22.70;53.40
35497;DHT22;21609;49.298;6.844;2023-05-16T15:02:22;22.70;53.10
35497;DHT22;21609;49.298;6.844;2023-05-16T15:04:48;22.80;53.10
35497;DHT22;21609;49.298;6.844;2023-05-16T15:07:14;22.80;53.20
35497;DHT22;21609;49.298;6.844;2023-05-16T15:09:39;22.80;53.10
35497;DHT22;21609;49.298;6.844;2023-05-16T15:12:05;22.80;53.00
35497;DHT22;21609;49.298;6.844;2023-05-16T15:14:32;22.80;52.90
35497;DHT22;21609;49.298;6.844;2023-05-16T15:16:57;22.80;52.90
35497;DHT22;21609;49.298;6.844;2023-05-16T15:19:23;22.90;53.00
35497;DHT22;21609;49.298;6.844;2023-05-16T15:21:49;22.90;53.00
35497;DHT22;21609;49.298;6.844;2023-05-16T15:24:15;23.00;52.90
35497;DHT22;21609;49.298;6.844;2023-05-16T15:26:41;23.00;52.80
35497;DHT22;21609;49.298;6.844;2023-05-16T15:29:07;23.00;52.80
35497;DHT22;21609;49.298;6.844;2023-05-16T15:31:32;23.10;52.70
35497;DHT22;21609;49.298;6.844;2023-05-16T15:33:58;23.10;52.60
35497;DHT22;21609;49.298;6.844;2023-05-16T15:36:24;23.10;52.70
35497;DHT22;21609;49.298;6.844;2023-05-16T15:38:49;23.10;52.60
35497;DHT22;21609;49.298;6.844;2023-05-16T15:41:15;23.10;52.70
35497;DHT22;21609;49.298;6.844;2023-05-16T15:43:41;23.10;52.50
35497;DHT22;21609;49.298;6.844;2023-05-16T15:46:09;23.10;52.50
35497;DHT22;21609;49.298;6.844;2023-05-16T15:48:37;23.00;52.60
35497;DHT22;21609;49.298;6.844;2023-05-16T15:51:07;23.00;52.60